Time;durP1;ratioP1;P1;durP2;ratioP2;P2;SDS_P1;SDS_P2;PMS_P1;PMS_P2;Temp;Humidity;BMP_temperature;BMP_pressure;BME280_temperature;BME280_humidity;BME280_pressure;Samples;Min_cycle;Max_cycle;Signal;HPM_P1;HPM_P2
2024/02/04 00:00:05;;;;;;;25.42;6.03;;;10.30;99.90;;;;;;4946438;28;20070;-72
2024/02/04 00:02:30;;;;;;;17.95;5.35;;;10.30;99.90;;;;;;4947226;28;20031;-72
2024/02/04 00:04:56;;;;;;;19.45;5.18;;;10.30;99.90;;;;;;4940219;28;20046;-72
2024/02/04 00:07:21;;;;;;;15.27;4.75;;;10.30;99.90;;;;;;4963594;28;20036;-72
2024/02/04 00:09:47;;;;;;;19.40;4.53;;;10.30;99.90;;;;;;4942579;28;20059;-73
2024/02/04 00:12:13;;;;;;;18.60;4.53;;;10.30;99.90;;;;;;4950064;28;20122;-73
2024/02/04 00:14:38;;;;;;;16.98;5.22;;;10.40;99.90;;;;;;4941085;28;20039;-71
2024/02/04 00:17:04;;;;;;;14.45;4.25;;;10.40;99.90;;;;;;4942133;28;20043;-71
2024/02/04 00:19:29;;;;;;;27.45;5.43;;;10.40;99.90;;;;;;4972296;28;20524;-72
2024/02/04 00:21:55;;;;;;;15.35;4.50;;;10.40;99.90;;;;;;4940762;28;20397;-71
2024/02/04 00:24:20;;;;;;;19.40;4.93;;;10.40;99.90;;;;;;4946054;28;20714;-72
2024/02/04 00:26:46;;;;;;;13.13;4.53;;;10.40;99.90;;;;;;4942202;28;20027;-72
2024/02/04 00:29:12;;;;;;;18.73;4.88;;;10.40;99.90;;;;;;4943467;28;20122;-73
2024/02/04 00:31:37;;;;;;;10.07;3.55;;;10.40;99.90;;;;;;4937454;29;20389;-71
2024/02/04 00:34:04;;;;;;;13.52;4.25;;;10.40;99.90;;;;;;4944891;28;20651;-73
2024/02/04 00:36:30;;;;;;;16.75;4.97;;;10.40;99.90;;;;;;4943329;28;20027;-73
2024/02/04 00:38:55;;;;;;;19.15;4.88;;;10.40;99.90;;;;;;4937979;28;20543;-72
2024/02/04 00:41:21;;;;;;;19.08;4.43;;;10.30;99.90;;;;;;4943430;28;20038;-71
2024/02/04 00:43:46;;;;;;;15.93;4.95;;;10.40;99.90;;;;;;4943315;28;20512;-71
2024/02/04 00:46:12;;;;;;;24.10;5.07;;;10.30;99.90;;;;;;4940661;28;20038;-71
2024/02/04 00:48:40;;;;;;;21.45;4.28;;;10.30;99.90;;;;;;4937933;28;20638;-72
2024/02/04 00:51:06;;;;;;;12.77;4.45;;;10.30;99.90;;;;;;4941199;29;20023;-71
2024/02/04 00:53:33;;;;;;;17.23;4.18;;;10.30;99.90;;;;;;4941854;28;20670;-71
2024/02/04 00:56:03;;;;;;;20.02;4.53;;;10.30;99.90;;;;;;4937544;28;20043;-73
2024/02/04 00:58:28;;;;;;;15.45;5.05;;;10.30;99.90;;;;;;4944265;28;20066;-72
2024/02/04 01:00:54;;;;;;;17.38;4.22;;;10.30;99.90;;;;;;4940353;28;20464;-73
2024/02/04 01:03:20;;;;;;;16.55;4.57;;;10.30;99.90;;;;;;4942727;28;20126;-72
2024/02/04 01:05:45;;;;;;;15.70;4.88;;;10.30;99.90;;;;;;4939590;28;20042;-73
2024/02/04 01:08:11;;;;;;;12.77;4.32;;;10.30;99.90;;;;;;4941107;28;20030;-71
2024/02/04 01:10:36;;;;;;;17.60;4.45;;;10.30;99.90;;;;;;4948764;28;20568;-71
2024/02/04 01:13:03;;;;;;;18.33;4.68;;;10.30;99.90;;;;;;4948037;28;20066;-72
2024/02/04 01:15:29;;;;;;;23.75;4.22;;;10.20;99.90;;;;;;4948956;28;20070;-72
2024/02/04 01:17:54;;;;;;;14.77;3.90;;;10.10;99.90;;;;;;4944488;28;20517;-71
2024/02/04 01:20:20;;;;;;;13.85;3.90;;;10.10;99.90;;;;;;4946495;28;20130;-72
2024/02/04 01:22:45;;;;;;;16.00;4.30;;;10.10;99.90;;;;;;4945283;28;20024;-72
2024/02/04 01:25:11;;;;;;;14.75;4.32;;;10.10;99.90;;;;;;4940883;29;20036;-73
2024/02/04 01:27:36;;;;;;;12.13;4.65;;;10.10;99.90;;;;;;4941024;28;20118;-71
2024/02/04 01:30:02;;;;;;;20.55;5.00;;;10.10;99.90;;;;;;4938037;28;20047;-72
2024/02/04 01:32:28;;;;;;;17.42;3.80;;;10.10;99.90;;;;;;4942885;28;20071;-72
2024/02/04 01:34:53;;;;;;;11.20;3.97;;;10.00;99.90;;;;;;4938349;28;20497;-71
2024/02/04 01:37:19;;;;;;;16.35;4.25;;;10.00;99.90;;;;;;4943174;28;20471;-75
2024/02/04 01:39:45;;;;;;;15.77;4.18;;;10.10;99.90;;;;;;4943195;28;20031;-74
2024/02/04 01:42:10;;;;;;;16.75;4.82;;;10.10;99.90;;;;;;4938385;28;20058;-72
2024/02/04 01:44:36;;;;;;;19.38;5.18;;;10.10;99.90;;;;;;4941568;28;20031;-73
2024/02/04 01:47:01;;;;;;;20.55;4.75;;;10.10;99.90;;;;;;4942097;28;20035;-72
2024/02/04 01:49:27;;;;;;;20.13;5.10;;;10.20;99.90;;;;;;4942550;28;20046;-72
2024/02/04 01:51:53;;;;;;;20.40;5.75;;;10.20;99.90;;;;;;4946995;28;20070;-72
2024/02/04 01:54:20;;;;;;;19.08;5.45;;;10.20;99.90;;;;;;4943083;28;20040;-73
2024/02/04 01:56:50;;;;;;;17.27;5.88;;;10.20;99.90;;;;;;4938689;28;20024;-72
2024/02/04 01:59:16;;;;;;;21.30;6.50;;;10.20;99.90;;;;;;4943119;28;20039;-72
2024/02/04 02:01:43;;;;;;;20.58;5.72;;;10.20;99.90;;;;;;4945875;28;20034;-72
2024/02/04 02:04:08;;;;;;;21.40;6.40;;;10.20;99.90;;;;;;4948107;28;20785;-71
2024/02/04 02:06:41;;;;;;;21.45;5.75;;;10.10;99.90;;;;;;4969189;28;20036;-73
2024/02/04 02:09:07;;;;;;;19.83;5.82;;;10.10;99.90;;;;;;4936120;28;20365;-71
2024/02/04 02:11:45;;;;;;;34.58;5.72;;;10.10;99.90;;;;;;4940698;28;20039;-73
2024/02/04 02:14:17;;;;;;;24.17;7.43;;;10.10;99.90;;;;;;4942383;28;20031;-74
2024/02/04 02:16:45;;;;;;;28.17;6.72;;;10.10;99.90;;;;;;4940658;28;20039;-74
2024/02/04 02:19:35;;;;;;;15.50;5.28;;;10.10;99.90;;;;;;4948965;28;20448;-74
2024/02/04 02:22:14;;;;;;;25.27;6.17;;;10.10;99.90;;;;;;4943519;28;20049;-73
2024/02/04 02:24:42;;;;;;;14.27;4.50;;;10.10;99.90;;;;;;4941669;28;20325;-72
2024/02/04 02:27:07;;;;;;;20.40;5.07;;;10.10;99.90;;;;;;4943722;28;20110;-71
2024/02/04 02:29:33;;;;;;;17.33;4.18;;;10.10;99.90;;;;;;4943409;28;20027;-72
2024/02/04 02:31:59;;;;;;;15.20;4.30;;;10.00;99.90;;;;;;4942443;28;20039;-72
2024/02/04 02:34:25;;;;;;;16.63;4.60;;;10.10;99.90;;;;;;4947694;28;20050;-73
2024/02/04 02:37:08;;;;;;;17.10;4.78;;;10.00;99.90;;;;;;4945874;28;20027;-73
2024/02/04 02:39:52;;;;;;;21.70;5.85;;;10.00;99.90;;;;;;4946989;28;20405;-73
2024/02/04 02:42:19;;;;;;;23.83;5.03;;;10.00;99.90;;;;;;4944134;28;20028;-72
2024/02/04 02:44:47;;;;;;;13.00;4.35;;;10.00;99.90;;;;;;4970086;28;20066;-73
2024/02/04 02:47:14;;;;;;;17.92;5.05;;;10.00;99.90;;;;;;4950933;28;20038;-73
2024/02/04 02:49:39;;;;;;;16.90;4.72;;;10.00;99.90;;;;;;4970996;28;20392;-74
2024/02/04 02:52:05;;;;;;;18.85;4.28;;;10.00;99.90;;;;;;4946393;28;20039;-72
2024/02/04 02:54:31;;;;;;;14.90;4.45;;;10.00;99.90;;;;;;4950508;28;20045;-72
2024/02/04 02:56:56;;;;;;;10.18;4.60;;;9.90;99.90;;;;;;4966395;28;20522;-72
2024/02/04 02:59:22;;;;;;;13.32;3.92;;;9.90;99.90;;;;;;4943549;28;20035;-72
2024/02/04 03:01:47;;;;;;;10.95;3.38;;;9.90;99.90;;;;;;4939413;28;20059;-73
2024/02/04 03:04:13;;;;;;;14.50;3.15;;;9.90;99.90;;;;;;4942022;29;20488;-73
2024/02/04 03:06:38;;;;;;;16.13;4.00;;;9.90;99.90;;;;;;4940844;28;20038;-72
2024/02/04 03:09:04;;;;;;;11.73;2.90;;;9.90;99.90;;;;;;4939589;28;20099;-72
2024/02/04 03:11:30;;;;;;;15.88;3.03;;;9.80;99.90;;;;;;4942032;28;20035;-73
2024/02/04 03:13:55;;;;;;;14.75;3.70;;;9.80;99.90;;;;;;4944157;28;20120;-72
2024/02/04 03:16:21;;;;;;;11.07;3.40;;;9.80;99.90;;;;;;4945558;28;20031;-73
2024/02/04 03:18:46;;;;;;;13.95;3.80;;;9.80;99.90;;;;;;4943736;28;20034;-72
2024/02/04 03:21:16;;;;;;;17.98;4.03;;;9.90;99.90;;;;;;4946173;28;20134;-73
2024/02/04 03:23:43;;;;;;;13.82;3.67;;;9.80;99.90;;;;;;4945041;29;20051;-72
2024/02/04 03:26:09;;;;;;;20.65;3.70;;;9.80;99.90;;;;;;4941852;28;20483;-73
2024/02/04 03:28:35;;;;;;;15.45;3.08;;;9.80;99.90;;;;;;4940789;28;20078;-73
2024/02/04 03:31:01;;;;;;;18.52;3.92;;;9.80;99.90;;;;;;4943399;28;20416;-73
2024/02/04 03:33:27;;;;;;;16.55;3.67;;;9.80;99.90;;;;;;4941831;28;20042;-72
2024/02/04 03:35:52;;;;;;;13.75;3.15;;;9.80;99.90;;;;;;4940978;28;20063;-72
2024/02/04 03:38:18;;;;;;;15.40;3.00;;;9.80;99.90;;;;;;4941778;28;20043;-71
2024/02/04 03:40:44;;;;;;;13.07;2.90;;;9.80;99.90;;;;;;4949157;28;20043;-73
2024/02/04 03:43:10;;;;;;;13.32;2.90;;;9.80;99.90;;;;;;4950534;28;20671;-74
2024/02/04 03:45:36;;;;;;;7.95;2.45;;;9.80;99.90;;;;;;4940843;28;20632;-73
2024/02/04 03:48:02;;;;;;;10.38;2.55;;;9.70;99.90;;;;;;4938074;28;20489;-72
2024/02/04 03:50:27;;;;;;;9.73;2.63;;;9.70;99.90;;;;;;4948178;28;20031;-72
2024/02/04 03:52:53;;;;;;;13.05;2.95;;;9.70;99.90;;;;;;4941586;28;20040;-74
2024/02/04 03:55:19;;;;;;;8.10;1.80;;;9.70;99.90;;;;;;4950826;28;20054;-73
2024/02/04 03:57:44;;;;;;;6.68;2.05;;;9.70;99.90;;;;;;4971445;28;20035;-73
2024/02/04 04:00:11;;;;;;;13.43;2.15;;;9.70;99.90;;;;;;4950156;28;20093;-72
2024/02/04 04:02:36;;;;;;;9.80;2.40;;;9.70;99.90;;;;;;4950467;28;20043;-71
2024/02/04 04:05:02;;;;;;;9.32;2.03;;;9.60;99.90;;;;;;4943096;28;20042;-72
2024/02/04 04:07:28;;;;;;;9.85;3.08;;;9.60;99.90;;;;;;4943919;28;20035;-72
2024/02/04 04:09:53;;;;;;;8.23;1.88;;;9.60;99.90;;;;;;4945102;28;20067;-72
2024/02/04 04:12:19;;;;;;;6.63;1.95;;;9.60;99.90;;;;;;4945186;28;20043;-75
2024/02/04 04:14:44;;;;;;;11.90;2.53;;;9.60;99.90;;;;;;4944420;28;20101;-73
2024/02/04 04:17:11;;;;;;;8.27;2.88;;;9.50;99.90;;;;;;4944525;28;20067;-73
2024/02/04 04:19:38;;;;;;;10.27;3.17;;;9.50;99.90;;;;;;4944274;28;20043;-71
2024/02/04 04:22:04;;;;;;;9.07;2.58;;;9.50;99.90;;;;;;4947372;28;20073;-73
2024/02/04 04:24:29;;;;;;;9.27;3.00;;;9.50;99.90;;;;;;4949452;28;20508;-75
2024/02/04 04:26:55;;;;;;;10.77;3.08;;;9.50;99.90;;;;;;4944092;28;20134;-72
2024/02/04 04:29:20;;;;;;;9.48;4.10;;;9.50;99.90;;;;;;4944465;28;20035;-72
2024/02/04 04:31:46;;;;;;;15.77;3.00;;;9.50;99.90;;;;;;4943510;28;20043;-72
2024/02/04 04:34:12;;;;;;;11.20;2.95;;;9.50;99.90;;;;;;4937901;28;20047;-72
2024/02/04 04:36:37;;;;;;;10.50;3.72;;;9.50;99.90;;;;;;4942537;28;20031;-72
2024/02/04 04:39:03;;;;;;;12.20;3.45;;;9.50;99.90;;;;;;4939535;28;20118;-71
2024/02/04 04:41:28;;;;;;;11.18;3.10;;;9.50;99.90;;;;;;4942982;28;20556;-72
2024/02/04 04:43:54;;;;;;;10.77;3.30;;;9.50;99.90;;;;;;4943875;28;20400;-73
2024/02/04 04:46:20;;;;;;;11.73;3.80;;;9.50;99.90;;;;;;4944793;28;20588;-72
2024/02/04 04:48:45;;;;;;;15.10;3.50;;;9.50;99.90;;;;;;4969097;28;20028;-73
2024/02/04 04:51:12;;;;;;;11.63;3.50;;;9.50;99.90;;;;;;4941199;28;20028;-72
2024/02/04 04:53:37;;;;;;;9.40;3.03;;;9.50;99.90;;;;;;4945039;28;20039;-74
2024/02/04 04:56:04;;;;;;;20.40;3.60;;;9.50;99.90;;;;;;4970891;28;20082;-73
2024/02/04 04:58:30;;;;;;;11.00;3.70;;;9.50;99.90;;;;;;4949766;28;20099;-72
2024/02/04 05:00:55;;;;;;;10.40;3.47;;;9.50;99.90;;;;;;4972236;28;20127;-71
2024/02/04 05:03:21;;;;;;;14.35;3.53;;;9.50;99.90;;;;;;4946798;28;20082;-71
2024/02/04 05:05:47;;;;;;;12.77;3.00;;;9.50;99.90;;;;;;4971701;28;20585;-74
2024/02/04 05:08:15;;;;;;;11.93;2.97;;;9.50;99.90;;;;;;4936331;28;20023;-72
2024/02/04 05:10:41;;;;;;;8.35;2.65;;;9.50;99.90;;;;;;4940308;28;20035;-72
2024/02/04 05:13:07;;;;;;;10.38;2.75;;;9.60;99.90;;;;;;4941366;28;20509;-72
2024/02/04 05:15:34;;;;;;;7.97;2.90;;;9.50;99.90;;;;;;4942872;28;20028;-72
2024/02/04 05:18:00;;;;;;;11.50;2.72;;;9.50;99.90;;;;;;4940376;28;20039;-72
2024/02/04 05:20:26;;;;;;;11.30;3.28;;;9.60;99.90;;;;;;4941394;28;20693;-73
2024/02/04 05:22:51;;;;;;;14.27;3.00;;;9.60;99.90;;;;;;4940916;28;20114;-74
2024/02/04 05:25:17;;;;;;;13.13;3.15;;;9.60;99.90;;;;;;4949436;28;20512;-72
2024/02/04 05:27:42;;;;;;;9.70;3.15;;;9.60;99.90;;;;;;4972283;28;20059;-73
2024/02/04 05:30:08;;;;;;;13.00;3.28;;;9.60;99.90;;;;;;4949169;28;20402;-74
2024/02/04 05:32:34;;;;;;;14.93;3.03;;;9.50;99.90;;;;;;4949668;28;20515;-73
2024/02/04 05:34:59;;;;;;;10.35;3.80;;;9.50;99.90;;;;;;4945301;28;20580;-73
2024/02/04 05:37:25;;;;;;;12.10;3.53;;;9.50;99.90;;;;;;4941356;28;20068;-72
2024/02/04 05:39:50;;;;;;;17.63;3.55;;;9.50;99.90;;;;;;4941014;28;20046;-72
2024/02/04 05:42:16;;;;;;;14.68;3.38;;;9.50;99.90;;;;;;4941212;28;20039;-72
2024/02/04 05:44:41;;;;;;;16.45;4.72;;;9.50;99.90;;;;;;4941130;28;20035;-74
2024/02/04 05:47:07;;;;;;;18.75;4.10;;;9.50;99.90;;;;;;4938933;28;20032;-71
2024/02/04 05:49:32;;;;;;;16.42;4.45;;;9.50;99.90;;;;;;4945904;28;20412;-74
2024/02/04 05:51:58;;;;;;;19.90;5.28;;;9.50;99.90;;;;;;4945958;28;20130;-71
2024/02/04 05:54:23;;;;;;;20.83;5.60;;;9.60;99.90;;;;;;4950343;28;20098;-72
2024/02/04 05:56:49;;;;;;;14.88;5.25;;;9.60;99.90;;;;;;4974342;28;20810;-73
2024/02/04 05:59:16;;;;;;;20.63;5.32;;;9.60;99.90;;;;;;4944471;28;20046;-73
2024/02/04 06:01:41;;;;;;;13.82;5.63;;;9.60;99.90;;;;;;4947080;28;20539;-72
2024/02/04 06:04:07;;;;;;;21.45;6.35;;;9.60;99.90;;;;;;4942703;28;20058;-72
2024/02/04 06:06:32;;;;;;;24.05;7.53;;;9.60;99.90;;;;;;4947392;28;20039;-73
2024/02/04 06:08:58;;;;;;;17.30;5.63;;;9.70;99.90;;;;;;4939082;28;20074;-73
2024/02/04 06:11:23;;;;;;;16.88;6.60;;;9.70;99.90;;;;;;4945089;28;20039;-73
2024/02/04 06:13:49;;;;;;;27.98;7.13;;;9.70;99.90;;;;;;4972930;28;20463;-73
2024/02/04 06:16:15;;;;;;;20.15;5.47;;;9.60;99.90;;;;;;4941702;29;20032;-72
2024/02/04 06:18:41;;;;;;;20.67;6.20;;;9.70;99.90;;;;;;4943607;28;20046;-72
2024/02/04 06:21:07;;;;;;;19.33;6.07;;;9.70;99.90;;;;;;4939916;29;20042;-72
2024/02/04 06:23:33;;;;;;;16.92;6.57;;;9.70;99.90;;;;;;4942625;28;20497;-71
2024/02/04 06:25:59;;;;;;;15.15;4.85;;;9.70;99.90;;;;;;4973017;28;20050;-73
2024/02/04 06:28:25;;;;;;;15.60;4.75;;;9.70;99.90;;;;;;4951107;28;20032;-74
2024/02/04 06:30:50;;;;;;;19.58;6.03;;;9.70;99.90;;;;;;4950824;28;20034;-72
2024/02/04 06:33:16;;;;;;;15.07;5.10;;;9.70;99.90;;;;;;4974402;28;20419;-72
2024/02/04 06:35:42;;;;;;;15.98;5.85;;;9.70;99.90;;;;;;4942622;28;20740;-73
2024/02/04 06:38:08;;;;;;;21.13;5.13;;;9.70;99.90;;;;;;4941236;28;20390;-74
2024/02/04 06:40:33;;;;;;;24.67;6.45;;;9.70;99.90;;;;;;4941934;28;20031;-73
2024/02/04 06:42:59;;;;;;;18.30;5.50;;;9.70;99.90;;;;;;4941208;28;20039;-72
2024/02/04 06:45:24;;;;;;;16.48;5.10;;;9.70;99.90;;;;;;4949982;28;20031;-72
2024/02/04 06:47:50;;;;;;;33.08;5.15;;;9.70;99.90;;;;;;4972133;28;20031;-72
2024/02/04 06:50:16;;;;;;;21.77;5.07;;;9.70;99.90;;;;;;4951231;28;20043;-72
2024/02/04 06:52:43;;;;;;;17.67;6.75;;;9.70;99.90;;;;;;4949736;28;20035;-72
2024/02/04 06:55:09;;;;;;;13.18;5.03;;;9.70;99.90;;;;;;4940843;28;20035;-72
2024/02/04 06:57:35;;;;;;;26.98;5.50;;;9.70;99.90;;;;;;4944426;28;20035;-73
2024/02/04 07:00:01;;;;;;;14.65;4.35;;;9.70;99.90;;;;;;4939120;28;20039;-74
2024/02/04 07:02:26;;;;;;;12.73;3.63;;;9.70;99.90;;;;;;4948005;28;20087;-73
2024/02/04 07:04:53;;;;;;;10.05;4.38;;;9.70;99.90;;;;;;4946069;28;20051;-72
2024/02/04 07:07:18;;;;;;;20.50;4.57;;;9.70;99.90;;;;;;4947424;28;20449;-72
2024/02/04 07:09:44;;;;;;;15.80;4.53;;;9.70;99.90;;;;;;4972458;28;20146;-72
2024/02/04 07:12:09;;;;;;;8.90;4.18;;;9.80;99.90;;;;;;4944010;28;20410;-73
2024/02/04 07:14:35;;;;;;;10.15;5.20;;;9.80;99.90;;;;;;4942978;28;20067;-72
2024/02/04 07:17:00;;;;;;;28.42;4.80;;;9.80;99.90;;;;;;4950277;28;20053;-72
2024/02/04 07:19:26;;;;;;;16.65;3.95;;;9.80;99.90;;;;;;4940524;28;20277;-73
2024/02/04 07:21:52;;;;;;;17.52;4.25;;;9.80;99.90;;;;;;4942273;28;20044;-72
2024/02/04 07:24:18;;;;;;;13.65;3.78;;;9.80;99.90;;;;;;4941869;28;20086;-72
2024/02/04 07:26:45;;;;;;;11.35;3.45;;;9.80;99.90;;;;;;4940425;28;20036;-73
2024/02/04 07:29:11;;;;;;;18.38;3.80;;;9.80;99.90;;;;;;4950030;28;20134;-74
2024/02/04 07:31:37;;;;;;;16.20;3.42;;;9.80;99.90;;;;;;4951512;28;20750;-72
2024/02/04 07:34:03;;;;;;;16.88;4.65;;;9.80;99.90;;;;;;4972058;28;20054;-73
2024/02/04 07:36:29;;;;;;;14.15;4.38;;;9.90;99.90;;;;;;4938630;28;20049;-72
2024/02/04 07:38:54;;;;;;;14.80;3.20;;;9.80;99.90;;;;;;4939662;28;20039;-72
2024/02/04 07:41:20;;;;;;;7.15;3.40;;;9.90;99.90;;;;;;4943335;28;20035;-72
2024/02/04 07:43:46;;;;;;;15.43;3.47;;;9.80;99.90;;;;;;4940385;28;20040;-73
2024/02/04 07:46:11;;;;;;;13.20;3.10;;;9.90;99.90;;;;;;4941904;28;20031;-72
2024/02/04 07:48:37;;;;;;;11.07;3.30;;;9.90;99.90;;;;;;4939531;28;20042;-72
2024/02/04 07:51:03;;;;;;;12.32;3.00;;;9.90;99.90;;;;;;4942107;28;20066;-73
2024/02/04 07:53:28;;;;;;;6.45;2.30;;;9.90;99.90;;;;;;4940349;28;20081;-74
2024/02/04 07:55:54;;;;;;;9.18;3.55;;;9.90;99.90;;;;;;4946275;28;20519;-74
2024/02/04 07:58:19;;;;;;;7.90;2.83;;;9.90;99.90;;;;;;4948208;28;20039;-72
2024/02/04 08:00:45;;;;;;;8.57;2.30;;;9.90;99.90;;;;;;4947950;28;20027;-74
2024/02/04 08:03:10;;;;;;;7.78;2.20;;;9.90;99.90;;;;;;4949323;28;20043;-72
2024/02/04 08:05:36;;;;;;;7.40;2.03;;;9.90;99.90;;;;;;4943844;28;20059;-72
2024/02/04 08:08:02;;;;;;;7.10;1.50;;;9.90;99.90;;;;;;4942247;28;20178;-72
2024/02/04 08:10:27;;;;;;;9.75;2.97;;;9.90;99.90;;;;;;4942580;28;20059;-72
2024/02/04 08:12:53;;;;;;;3.85;1.35;;;9.90;99.90;;;;;;4938030;28;20050;-72
2024/02/04 08:15:19;;;;;;;7.00;1.67;;;9.90;99.90;;;;;;4947451;28;20034;-74
2024/02/04 08:17:45;;;;;;;9.27;1.85;;;9.90;99.90;;;;;;4946544;28;20598;-72
2024/02/04 08:20:11;;;;;;;8.02;2.90;;;9.90;99.90;;;;;;4949971;28;20082;-72
2024/02/04 08:22:37;;;;;;;3.95;2.13;;;9.90;99.90;;;;;;4949647;28;20042;-71
2024/02/04 08:25:04;;;;;;;12.05;3.35;;;9.90;99.90;;;;;;4941407;28;20027;-72
2024/02/04 08:27:29;;;;;;;17.42;4.30;;;9.80;99.90;;;;;;4941950;28;20599;-73
2024/02/04 08:29:55;;;;;;;9.45;3.95;;;9.80;99.90;;;;;;4940578;28;20121;-72
2024/02/04 08:32:21;;;;;;;18.55;5.25;;;9.90;99.90;;;;;;4941255;28;20814;-72
2024/02/04 08:34:46;;;;;;;14.10;3.60;;;9.90;99.90;;;;;;4941878;28;20102;-73
2024/02/04 08:37:12;;;;;;;12.07;3.20;;;9.90;99.90;;;;;;4940966;28;20028;-74
2024/02/04 08:39:37;;;;;;;10.45;3.58;;;9.90;99.90;;;;;;4934188;28;20520;-73
2024/02/04 08:42:03;;;;;;;9.82;2.85;;;9.90;99.90;;;;;;4941778;28;20074;-73
2024/02/04 08:44:29;;;;;;;12.63;3.53;;;10.00;99.90;;;;;;4938842;28;20035;-72
2024/02/04 08:46:55;;;;;;;13.07;2.65;;;10.10;99.90;;;;;;4941995;28;20054;-74
2024/02/04 08:49:21;;;;;;;18.15;3.30;;;10.10;99.90;;;;;;4968054;28;21745;-74
2024/02/04 08:51:46;;;;;;;6.95;2.40;;;10.20;99.90;;;;;;4938887;28;20131;-72
2024/02/04 08:54:12;;;;;;;10.70;2.83;;;10.20;99.90;;;;;;4941882;28;20885;-72
2024/02/04 08:56:37;;;;;;;17.85;2.75;;;10.20;99.90;;;;;;4937235;28;20519;-73
2024/02/04 08:59:05;;;;;;;7.82;2.00;;;10.20;99.90;;;;;;4940169;28;20035;-73
2024/02/04 09:01:31;;;;;;;14.77;2.38;;;10.20;99.90;;;;;;4939710;29;20031;-74
2024/02/04 09:03:57;;;;;;;11.93;2.47;;;10.20;99.90;;;;;;4946797;28;20042;-73
2024/02/04 09:06:22;;;;;;;8.00;1.65;;;10.20;99.90;;;;;;4942177;28;20070;-73
2024/02/04 09:08:48;;;;;;;5.22;1.73;;;10.30;99.90;;;;;;4942964;28;20032;-72
2024/02/04 09:11:18;;;;;;;3.67;1.60;;;10.20;99.90;;;;;;4940057;28;20028;-74
2024/02/04 09:13:46;;;;;;;;;;;10.30;99.90;;;;;;4937336;28;20035;-73
2024/02/04 09:16:12;;;;;;;4.78;1.45;;;10.30;99.90;;;;;;4941205;28;19914;-73
2024/02/04 09:18:38;;;;;;;5.75;1.25;;;10.30;99.90;;;;;;4943695;28;20043;-74
2024/02/04 09:21:03;;;;;;;7.72;1.40;;;10.40;99.90;;;;;;4948784;28;20583;-72
2024/02/04 09:23:29;;;;;;;8.80;1.15;;;10.30;99.90;;;;;;4950317;28;20039;-73
2024/02/04 09:25:54;;;;;;;10.13;1.40;;;10.40;99.90;;;;;;4941920;28;20040;-73
2024/02/04 09:28:20;;;;;;;8.77;1.35;;;10.40;99.90;;;;;;4944886;28;20046;-73
2024/02/04 09:30:46;;;;;;;4.57;1.40;;;10.40;99.90;;;;;;4943423;28;20050;-72
2024/02/04 09:33:14;;;;;;;6.55;1.48;;;10.40;99.90;;;;;;4943176;28;20050;-72
2024/02/04 09:35:39;;;;;;;5.65;1.20;;;10.50;99.90;;;;;;4942963;29;20050;-73
2024/02/04 09:38:05;;;;;;;9.70;1.40;;;10.50;99.90;;;;;;4942103;28;20043;-74
2024/02/04 09:40:31;;;;;;;7.78;1.23;;;10.50;99.90;;;;;;4944932;28;20082;-73
2024/02/04 09:42:58;;;;;;;9.52;1.58;;;10.50;99.90;;;;;;4942141;28;20035;-73
2024/02/04 09:45:24;;;;;;;10.13;1.10;;;10.60;99.90;;;;;;4946247;28;20130;-73
2024/02/04 09:47:52;;;;;;;5.78;0.75;;;10.60;99.90;;;;;;4938019;28;20039;-73
2024/02/04 09:50:20;;;;;;;6.28;1.00;;;10.70;99.90;;;;;;4937704;28;20043;-72
2024/02/04 09:52:50;;;;;;;3.92;0.90;;;10.70;99.90;;;;;;4940534;28;20043;-73
2024/02/04 09:55:17;;;;;;;6.72;1.25;;;10.70;99.90;;;;;;4943471;28;20121;-72
2024/02/04 09:57:44;;;;;;;7.50;1.48;;;10.70;99.90;;;;;;4947120;28;20039;-71
2024/02/04 10:00:10;;;;;;;4.32;1.13;;;10.70;99.90;;;;;;4970422;28;20728;-73
2024/02/04 10:02:36;;;;;;;7.78;1.50;;;10.80;99.90;;;;;;4967020;28;20041;-73
2024/02/04 10:05:03;;;;;;;4.18;0.73;;;10.80;99.90;;;;;;4946209;28;20062;-74
2024/02/04 10:07:29;;;;;;;4.25;0.82;;;10.80;99.90;;;;;;4936698;28;20804;-72
2024/02/04 10:09:55;;;;;;;4.05;0.60;;;10.80;99.90;;;;;;4939043;28;20039;-74
2024/02/04 10:12:21;;;;;;;4.85;0.80;;;10.80;99.90;;;;;;4935853;28;20023;-74
2024/02/04 10:14:46;;;;;;;4.00;0.70;;;10.80;99.90;;;;;;4938254;28;20040;-72
2024/02/04 10:17:15;;;;;;;2.75;0.40;;;10.90;99.90;;;;;;4938821;28;20507;-73
2024/02/04 10:19:40;;;;;;;1.02;0.43;;;10.80;99.90;;;;;;4938090;28;20126;-72
2024/02/04 10:22:06;;;;;;;1.75;0.20;;;10.90;99.90;;;;;;4939922;28;20118;-72
2024/02/04 10:24:32;;;;;;;0.15;0.10;;;10.90;99.90;;;;;;4939442;28;20067;-73
2024/02/04 10:26:57;;;;;;;2.50;0.50;;;10.90;99.90;;;;;;4941944;28;20032;-75
2024/02/04 10:29:24;;;;;;;3.00;0.30;;;11.00;99.90;;;;;;4935865;28;20127;-74
2024/02/04 10:31:57;;;;;;;1.45;0.38;;;11.10;99.90;;;;;;4940732;28;20043;-74
2024/02/04 10:34:27;;;;;;;0.65;0.10;;;11.10;99.90;;;;;;4941452;28;20059;-72
2024/02/04 10:36:52;;;;;;;0.93;0.20;;;11.20;99.90;;;;;;4943395;28;20055;-73
2024/02/04 10:39:18;;;;;;;0.55;0.10;;;11.20;99.90;;;;;;4947179;28;20040;-71
2024/02/04 10:41:50;;;;;;;0.55;0.20;;;11.20;99.90;;;;;;4942765;28;20122;-72
2024/02/04 10:44:17;;;;;;;0.57;0.20;;;11.20;99.90;;;;;;4942664;28;20485;-73
2024/02/04 10:46:47;;;;;;;1.40;0.20;;;11.20;99.90;;;;;;4945311;28;20501;-72
2024/02/04 10:49:15;;;;;;;0.70;0.20;;;11.20;99.90;;;;;;4945692;28;20051;-74
2024/02/04 10:51:42;;;;;;;0.55;0.30;;;11.10;99.90;;;;;;4950627;28;20563;-72
2024/02/04 10:54:08;;;;;;;1.13;0.47;;;11.00;99.90;;;;;;4933115;28;20069;-72
2024/02/04 10:56:44;;;;;;;2.53;1.10;;;10.90;99.90;;;;;;4939033;28;20492;-72
2024/02/04 10:59:14;;;;;;;2.38;0.90;;;10.90;99.90;;;;;;4945650;28;20038;-72
2024/02/04 11:01:41;;;;;;;4.18;0.77;;;10.90;99.90;;;;;;4941723;28;20098;-77
2024/02/04 11:04:11;;;;;;;2.28;1.50;;;10.90;99.90;;;;;;4945471;28;20059;-73
2024/02/04 11:06:37;;;;;;;5.30;1.05;;;10.90;99.90;;;;;;4972044;28;20098;-73
2024/02/04 11:09:05;;;;;;;4.20;1.42;;;10.80;99.90;;;;;;4942299;28;20035;-73
2024/02/04 11:11:31;;;;;;;9.15;2.53;;;10.80;99.90;;;;;;4940449;29;20043;-73
2024/02/04 11:14:02;;;;;;;6.18;1.35;;;10.80;99.90;;;;;;4948298;28;20047;-73
2024/02/04 11:16:27;;;;;;;;;;;10.80;99.90;;;;;;4973487;28;20046;-75
2024/02/04 11:19:30;;;;;;;6.80;2.10;;;10.80;99.90;;;;;;4934998;29;19919;-73
2024/02/04 11:22:22;;;;;;;4.65;1.55;;;10.70;99.90;;;;;;4945368;28;20125;-75
2024/02/04 11:25:12;;;;;;;6.05;1.23;;;10.80;99.90;;;;;;4940996;28;20139;-72
2024/02/04 11:27:38;;;;;;;5.60;0.80;;;10.70;99.90;;;;;;4945279;28;20436;-72
2024/02/04 11:30:04;;;;;;;5.60;1.75;;;10.70;99.90;;;;;;4943825;28;20729;-74
2024/02/04 11:32:30;;;;;;;5.05;1.38;;;10.70;99.90;;;;;;4943409;28;20046;-73
2024/02/04 11:35:00;;;;;;;6.20;2.47;;;10.70;99.90;;;;;;4943003;28;20032;-73
2024/02/04 11:37:26;;;;;;;2.90;1.02;;;10.70;99.90;;;;;;4944584;29;20024;-73
2024/02/04 11:39:53;;;;;;;5.97;1.20;;;10.70;99.90;;;;;;4943822;28;20055;-73
2024/02/04 11:42:22;;;;;;;4.15;0.82;;;10.70;99.90;;;;;;4946258;28;20066;-74
2024/02/04 11:44:48;;;;;;;11.18;2.63;;;10.70;99.90;;;;;;4943597;28;20036;-73
2024/02/04 11:47:24;;;;;;;6.72;1.42;;;10.80;99.90;;;;;;4946745;28;20038;-72
2024/02/04 11:49:59;;;;;;;6.95;0.82;;;10.90;99.90;;;;;;4943766;28;20027;-73
2024/02/04 11:52:28;;;;;;;6.85;1.63;;;10.90;99.90;;;;;;4945063;28;20114;-74
2024/02/04 11:54:53;;;;;;;4.45;1.52;;;10.90;99.90;;;;;;4942738;28;20048;-74
2024/02/04 11:57:20;;;;;;;3.95;0.82;;;11.00;99.90;;;;;;4945028;28;20331;-73
2024/02/04 11:59:47;;;;;;;10.02;1.05;;;11.00;99.90;;;;;;4939304;28;20031;-72
2024/02/04 12:02:15;;;;;;;3.67;0.93;;;11.00;99.90;;;;;;4945531;28;20484;-72
2024/02/04 12:04:41;;;;;;;3.33;0.73;;;11.10;99.90;;;;;;4946672;28;20519;-73
2024/02/04 12:07:08;;;;;;;5.22;0.90;;;11.10;99.90;;;;;;4944990;28;20055;-75
2024/02/04 12:09:35;;;;;;;6.82;1.35;;;11.20;99.90;;;;;;4941237;28;20330;-73
2024/02/04 12:12:01;;;;;;;8.50;3.10;;;11.20;99.90;;;;;;4940121;28;20754;-74
2024/02/04 12:14:29;;;;;;;5.35;1.20;;;11.20;99.90;;;;;;4938761;29;20087;-73
2024/02/04 12:16:57;;;;;;;5.32;0.85;;;11.20;99.90;;;;;;4940838;28;20041;-73
2024/02/04 12:19:23;;;;;;;6.15;0.88;;;11.20;99.90;;;;;;4941340;28;20030;-73
2024/02/04 12:21:48;;;;;;;5.45;0.90;;;11.20;99.90;;;;;;4940512;28;20023;-73
2024/02/04 12:24:14;;;;;;;8.15;1.02;;;11.20;99.90;;;;;;4939723;28;20035;-71
2024/02/04 12:26:40;;;;;;;2.47;0.85;;;11.20;99.90;;;;;;4941895;28;20035;-73
2024/02/04 12:29:06;;;;;;;7.35;0.82;;;11.20;99.90;;;;;;4939126;28;20122;-74
2024/02/04 12:31:33;;;;;;;5.05;1.00;;;11.20;99.90;;;;;;4940673;28;20042;-74
2024/02/04 12:34:01;;;;;;;6.50;0.88;;;11.20;99.90;;;;;;4941100;28;20505;-72
2024/02/04 12:36:30;;;;;;;2.80;0.65;;;11.20;99.90;;;;;;4941458;28;20045;-73
2024/02/04 12:39:00;;;;;;;7.53;1.30;;;11.20;99.90;;;;;;4940416;28;20039;-72
2024/02/04 12:41:27;;;;;;;6.63;1.10;;;11.20;99.90;;;;;;4944145;28;20035;-73